Latest Weather Observations for Lombadina

IDW60801

Issued at 6:34 pm WST Sunday 25 June 2017 (issued every 30 minutes, with the page automatically refreshed every 10 minutes)

About weather observations | Map of weather stations | Latest weather observations for WA | Other Formats
Station Details ID: 503016 Name: LOMBADINA AIRSTRIP Lat: -16.52 Lon: 122.92 Height: 42.0 m
Data from the previous 72 hours. | See also: Recent months for locations in Western Australia
Date/Time
WST
Temp
°C
App
Temp
°C
Dew
Point
°C
Rel
Hum
%
Delta-T
°C
Wind Press
QNH
hPa
Press
MSL
hPa
Rain since
9am
mm
Dir  Spd
km/h
Gust
km/h
Spd
kts
Gust
kts
25/06:30pm 23.0 26.9 21.8 93 0.8 W 4 7 2 4 1013.0 1012.8 0.0
25/06:00pm 23.4 27.1 21.5 89 1.3 WNW 4 7 2 4 1012.6 1012.4 0.0
25/05:30pm 24.1 27.5 21.6 86 1.7 W 6 9 3 5 1012.3 1012.1 0.0
25/05:00pm 24.9 27.9 21.2 80 2.4 WNW 7 13 4 7 1012.1 1011.9 0.0
25/04:30pm 25.5 28.4 21.0 76 3.0 NW 7 11 4 6 1011.9 1011.7 0.0
25/04:00pm 25.7 27.3 20.0 71 3.7 NW 11 17 6 9 1011.8 1011.6 0.0
25/03:30pm 26.5 28.5 19.9 67 4.3 WNW 9 19 5 10 1011.7 1011.5 0.0
25/03:00pm 26.7 28.5 19.6 65 4.6 NW 9 15 5 8 1011.7 1011.5 0.0
25/02:30pm 26.7 28.2 18.8 62 5.1 NW 9 17 5 9 1011.7 1011.5 0.0
25/02:00pm 26.8 27.3 18.4 60 5.4 NW 13 19 7 10 1011.8 1011.6 0.0
25/01:30pm 27.2 28.1 18.5 59 5.6 WNW 11 20 6 11 1012.0 1011.8 0.0
25/01:00pm 27.6 29.0 18.6 58 5.8 WNW 9 17 5 9 1012.1 1011.9 0.0
25/12:30pm 27.9 29.4 18.9 58 5.8 NW 9 15 5 8 1012.5 1012.3 0.0
25/12:00pm 28.2 29.1 18.3 55 6.3 NW 11 15 6 8 1013.0 1012.8 0.0
25/11:30am 28.1 29.7 17.9 54 6.5 N 6 11 3 6 1013.4 1013.2 0.0
25/11:00am 27.7 28.6 17.5 53 6.4 ENE 9 15 5 8 1013.9 1013.7 0.0
25/10:30am 27.6 29.0 17.7 54 6.3 E 7 13 4 7 1014.4 1014.2 0.0
25/10:00am 27.2 28.0 15.9 50 6.9 ESE 6 11 3 6 1014.5 1014.3 0.0
25/09:30am 27.0 28.3 17.2 55 6.1 ESE 6 11 3 6 1014.6 1014.4 0.0
25/09:00am 26.2 27.3 17.0 57 5.7 E 7 11 4 6 1014.6 1014.4 0.0
25/08:30am 25.2 27.2 17.9 64 4.6 SE 4 7 2 4 1014.4 1014.2 0.0
25/08:00am 24.2 26.1 18.6 71 3.5 SE 6 9 3 5 1014.2 1014.0 0.0
25/07:30am 22.5 25.0 19.1 81 2.2 SE 4 6 2 3 1013.7 1013.5 0.0
25/07:00am 20.1 22.7 18.4 90 1.1 SE 2 6 1 3 1013.5 1013.3 0.0
25/06:30am 20.3 21.8 17.5 84 1.7 ESE 6 9 3 5 1013.0 1012.8 0.0
25/06:00am 19.1 20.6 17.6 91 0.9 ESE 6 9 3 5 1012.5 1012.3 0.0
25/05:30am 19.2 20.7 17.5 90 1.0 E 6 9 3 5 1012.2 1012.0 0.0
25/05:00am 18.4 19.8 17.4 94 0.6 ESE 6 7 3 4 1012.3 1012.1 0.0
25/04:30am 17.9 19.8 17.7 99 0.1 ESE 4 7 2 4 1012.2 1012.0 0.0
25/04:00am 18.3 21.1 18.0 98 0.2 CALM 0 4 0 2 1012.2 1012.0 0.0
25/03:30am 18.7 20.8 18.2 97 0.3 SSW 4 7 2 4 1012.1 1011.9 0.0
25/03:00am 19.2 21.3 18.9 98 0.2 SW 6 7 3 4 1012.4 1012.2 0.0
25/02:30am 19.4 21.8 18.9 97 0.3 SW 4 6 2 3 1012.3 1012.1 0.0
25/02:00am 20.0 22.3 19.5 97 0.3 SW 6 7 3 4 1012.4 1012.2 0.0
25/01:30am 20.3 22.9 20.0 98 0.2 SW 6 9 3 5 1012.6 1012.4 0.0
25/01:00am 20.6 23.1 20.3 98 0.2 SW 7 11 4 6 1012.7 1012.5 0.0
25/12:30am 20.6 23.2 20.1 97 0.3 SW 6 9 3 5 1012.9 1012.7 0.0
25/12:00am 21.0 23.8 20.5 97 0.3 SW 6 9 3 5 1013.0 1012.8 0.0
 
Date/Time
WST
Temp
°C
App
Temp
°C
Dew
Point
°C
Rel
Hum
%
Delta-T
°C
Wind Press
QNH
hPa
Press
MSL
hPa
Rain since
9am
mm
Dir  Spd
km/h
Gust
km/h
Spd
kts
Gust
kts
24/11:30pm 20.9 23.7 20.4 97 0.3 SW 6 9 3 5 1013.0 1012.8 0.0
24/11:00pm 21.2 24.1 20.7 97 0.3 SW 6 9 3 5 1013.1 1012.9 0.0
24/10:30pm 21.1 23.9 20.4 96 0.5 SW 6 7 3 4 1013.2 1013.0 0.0
24/10:00pm 21.2 24.0 20.5 96 0.5 WSW 6 9 3 5 1013.4 1013.2 0.0
24/09:30pm 21.2 24.2 20.0 93 0.8 WSW 4 7 2 4 1013.5 1013.3 0.0
24/09:00pm 21.3 24.4 20.3 94 0.6 WSW 4 7 2 4 1013.3 1013.1 0.0
24/08:30pm 21.5 24.6 20.3 93 0.8 WSW 4 6 2 3 1013.2 1013.0 0.0
24/08:00pm 22.0 24.6 20.1 89 1.2 SW 6 11 3 6 1013.2 1013.0 0.0
24/07:30pm 22.1 24.7 20.4 90 1.1 SW 7 11 4 6 1012.7 1012.5 0.0
24/07:00pm 21.4 23.4 18.8 85 1.6 WSW 6 7 3 4 1012.3 1012.1 0.0
24/06:30pm 22.5 25.4 19.9 85 1.7 W 4 7 2 4 1011.9 1011.7 0.0
24/06:00pm 22.8 25.2 18.8 78 2.5 W 4 7 2 4 1011.7 1011.5 0.0
24/05:30pm 25.1 27.5 18.8 68 4.0 WNW 4 7 2 4 1011.4 1011.2 0.0
24/05:00pm 26.9 28.5 17.9 57 5.7 WNW 6 9 3 5 1011.1 1010.9 0.0
24/04:30pm 29.3 28.9 12.3 35 10.0 NW 6 11 3 6 1010.7 1010.5 0.0
24/04:00pm 29.2 29.4 14.2 40 9.1 NW 6 9 3 5 1010.4 1010.2 0.0
24/03:30pm 30.4 29.3 9.8 28 11.6 NE 6 9 3 5 1010.3 1010.1 0.0
24/03:00pm 30.2 28.5 9.7 28 11.6 ENE 9 11 5 6 1010.2 1010.0 0.0
24/02:30pm 30.5 29.3 9.4 27 11.9 ESE 6 11 3 6 1010.1 1009.9 0.0
24/02:00pm 30.2 29.2 10.2 29 11.4 ESE 6 20 3 11 1010.2 1010.0 0.0
24/01:30pm 29.6 28.3 11.2 32 10.6 ESE 9 15 5 8 1010.6 1010.4 0.0
24/01:00pm 29.5 28.4 12.0 34 10.2 ESE 9 17 5 9 1010.9 1010.7 0.0
24/12:30pm 28.6 27.9 12.1 36 9.6 ESE 7 15 4 8 1011.4 1011.2 0.0
24/12:00pm 28.5 27.9 13.6 40 8.9 ESE 9 19 5 10 1011.9 1011.7 0.0
24/11:30am 28.6 28.4 14.8 43 8.4 ESE 9 17 5 9 1012.5 1012.3 0.0
24/11:00am 27.8 27.8 14.1 43 8.2 ESE 7 15 4 8 1013.1 1012.9 0.0
24/10:30am 27.5 26.8 13.1 41 8.5 SE 9 15 5 8 1013.7 1013.5 0.0
24/10:00am 27.6 27.5 13.9 43 8.2 ESE 7 13 4 7 1013.9 1013.7 0.0
24/09:30am 26.4 25.6 12.8 43 7.9 ESE 9 17 5 9 1014.4 1014.2 0.0
24/09:00am 25.6 25.3 12.8 45 7.4 SE 6 9 3 5 1014.6 1014.4 0.0
24/08:30am 24.9 24.9 13.5 49 6.7 SSE 6 11 3 6 1014.5 1014.3 0.0
24/08:00am 23.8 23.6 13.1 51 6.2 SE 6 11 3 6 1014.0 1013.8 0.0
24/07:30am 22.6 22.8 14.2 59 4.9 ESE 6 9 3 5 1013.7 1013.5 0.0
24/07:00am 19.2 20.3 14.7 75 2.6 ESE 2 4 1 2 1013.3 1013.1 0.0
24/06:30am 17.9 18.8 14.0 78 2.2 SE 2 7 1 4 1013.1 1012.9 0.0
24/06:00am 18.3 18.9 13.0 71 3.0 ESE 2 7 1 4 1012.8 1012.6 0.0
24/05:30am 17.2 17.5 13.3 78 2.2 ESE 4 7 2 4 1012.6 1012.4 0.0
24/05:00am 17.4 18.1 13.3 77 2.3 ESE 2 6 1 3 1012.4 1012.2 0.0
24/04:30am 17.4 18.3 13.9 80 2.0 S 2 4 1 2 1012.2 1012.0 0.0
24/04:00am 17.5 18.1 14.2 81 1.9 SSW 4 6 2 3 1012.2 1012.0 0.0
24/03:30am 18.1 18.8 14.4 79 2.1 SSW 4 7 2 4 1012.2 1012.0 0.0
24/03:00am 17.1 18.2 15.6 91 0.9 SSW 4 6 2 3 1012.4 1012.2 0.0
24/02:30am 17.2 18.3 16.6 96 0.4 SSW 6 7 3 4 1012.4 1012.2 0.0
24/02:00am 17.6 19.0 17.4 99 0.1 SSW 6 7 3 4 1012.6 1012.4 0.0
24/01:30am 18.0 19.7 18.0 100 0.0 SSW 6 7 3 4 1012.8 1012.6 0.0
24/01:04am 18.8 21.6 18.8 100 0.0 SW 2 7 1 4 1012.9 1012.7 0.0
24/01:00am 19.0 21.9 19.0 100 0.0 SW 2 6 1 3 1012.9 1012.7 0.0
24/12:30am 19.8 22.7 19.8 100 0.0 SW 4 6 2 3 1013.1 1012.9 0.0
24/12:00am 20.2 23.6 20.2 100 0.0 SW 2 6 1 3 1013.1 1012.9 0.0
 
Date/Time
WST
Temp
°C
App
Temp
°C
Dew
Point
°C
Rel
Hum
%
Delta-T
°C
Wind Press
QNH
hPa
Press
MSL
hPa
Rain since
9am
mm
Dir  Spd
km/h
Gust
km/h
Spd
kts
Gust
kts
23/11:30pm 19.8 23.0 19.8 100 0.0 SW 2 6 1 3 1013.3 1013.1 0.0
23/11:05pm 19.5 22.6 19.5 100 0.0 SW 2 4 1 2 1013.5 1013.3 0.0
23/11:00pm 19.5 22.2 19.5 100 0.0 SW 4 6 2 3 1013.5 1013.3 0.0
23/10:30pm 19.4 22.7 19.2 99 0.1 CALM 0 0 0 0 1013.7 1013.5 0.0
23/10:00pm 19.4 22.7 19.1 98 0.2 CALM 0 0 0 0 1013.7 1013.5 0.0
23/09:30pm 19.7 23.0 19.2 97 0.3 CALM 0 0 0 0 1013.7 1013.5 0.0
23/09:00pm 20.0 22.6 19.2 95 0.5 WSW 4 6 2 3 1013.6 1013.4 0.0
23/08:30pm 20.7 23.0 19.5 93 0.8 WSW 6 7 3 4 1013.5 1013.3 0.0
23/08:00pm 20.6 22.9 19.4 93 0.8 SW 6 7 3 4 1013.4 1013.2 0.0
23/07:30pm 20.7 23.3 19.2 91 0.9 SW 4 7 2 4 1012.9 1012.7 0.0
23/07:00pm 20.8 23.2 18.7 88 1.3 SW 4 7 2 4 1012.8 1012.6 0.0
23/06:30pm 22.0 24.3 19.4 85 1.7 WSW 6 7 3 4 1012.4 1012.2 0.0
23/06:00pm 23.1 25.9 19.7 81 2.2 W 4 7 2 4 1012.1 1011.9 0.0
23/05:30pm 24.2 26.5 19.5 75 3.0 WSW 6 7 3 4 1011.9 1011.7 0.0
23/05:00pm 26.1 28.3 19.2 65 4.4 WSW 6 9 3 5 1011.7 1011.5 0.0
23/04:30pm 27.7 29.0 17.5 53 6.4 WNW 7 11 4 6 1011.5 1011.3 0.0
23/04:00pm 29.4 29.1 11.5 33 10.4 ESE 4 6 2 3 1011.5 1011.3 0.0
23/03:30pm 29.6 29.0 11.6 33 10.4 ENE 6 11 3 6 1011.3 1011.1 0.0
23/03:00pm 29.8 29.0 10.9 31 10.9 E 6 11 3 6 1011.3 1011.1 0.0
23/02:30pm 30.3 29.8 12.2 33 10.6 ESE 6 13 3 7 1011.4 1011.2 0.0
23/02:00pm 29.7 29.1 12.2 34 10.3 ESE 7 13 4 7 1011.7 1011.5 0.0
23/01:30pm 29.1 28.3 11.6 33 10.1 ESE 7 15 4 8 1012.2 1012.0 0.0
23/01:00pm 29.1 27.9 12.9 37 9.6 ESE 11 19 6 10 1012.8 1012.6 0.0
23/12:30pm 28.6 27.8 12.9 38 9.3 ESE 9 20 5 11 1013.5 1013.3 0.0
23/12:00pm 28.6 27.6 13.3 39 9.1 ESE 11 20 6 11 1014.0 1013.8 0.0
23/11:30am 27.9 27.0 12.7 39 8.9 ESE 9 17 5 9 1014.5 1014.3 0.0
23/11:00am 27.9 27.4 13.8 42 8.4 ESE 9 19 5 10 1014.9 1014.7 0.0
23/10:30am 27.9 27.3 13.4 40 8.6 SE 9 19 5 10 1015.4 1015.2 0.0
23/10:00am 26.9 26.2 13.3 43 8.0 SE 9 17 5 9 1015.9 1015.7 0.0
23/09:30am 26.5 25.9 13.6 45 7.6 SE 9 17 5 9 1016.1 1015.9 0.0
23/09:00am 25.4 24.3 11.9 43 7.7 SE 9 19 5 10 1016.1 1015.9 0.0
23/08:30am 25.1 24.2 12.7 46 7.2 ESE 9 17 5 9 1016.1 1015.9 0.0
23/08:00am 23.7 23.6 13.8 53 5.8 SE 7 13 4 7 1015.9 1015.7 0.0
23/07:30am 22.1 22.4 14.5 62 4.5 ESE 6 7 3 4 1015.6 1015.4 0.0
23/07:00am 18.6 19.7 14.7 78 2.3 ESE 2 7 1 4 1015.4 1015.2 0.0
23/06:30am 17.5 18.4 15.1 86 1.4 SE 4 7 2 4 1015.1 1014.9 0.0
23/06:00am 17.2 18.4 15.9 92 0.8 SE 4 7 2 4 1014.9 1014.7 0.0
23/05:30am 17.2 19.0 16.4 95 0.5 ESE 2 7 1 4 1014.7 1014.5 0.0
23/05:00am 17.9 19.3 17.3 96 0.4 E 6 7 3 4 1014.6 1014.4 0.0
23/04:30am 18.0 20.2 17.4 96 0.4 SSW 2 13 1 7 1014.3 1014.1 0.0
23/04:00am 18.2 20.2 17.9 98 0.2 SSW 4 7 2 4 1014.2 1014.0 0.0
23/03:30am 18.9 21.6 18.7 99 0.1 SW 2 6 1 3 1014.2 1014.0 0.0
23/03:00am 19.3 21.8 19.0 98 0.2 SW 4 6 2 3 1014.2 1014.0 0.0
23/02:30am 19.6 21.8 19.3 98 0.2 SSW 6 11 3 6 1014.3 1014.1 0.0
23/02:00am 19.0 21.1 18.2 95 0.5 SW 4 7 2 4 1014.5 1014.3 0.0
23/01:30am 19.6 21.1 17.6 88 1.2 SW 6 7 3 4 1014.7 1014.5 0.0
23/01:00am 19.3 20.3 16.3 83 1.8 SW 6 9 3 5 1014.8 1014.6 0.0
23/12:30am 19.2 20.6 17.3 89 1.2 SW 6 11 3 6 1015.0 1014.8 0.0
23/12:00am 19.2 21.9 18.7 97 0.3 WSW 2 6 1 3 1015.0 1014.8 0.0
 
Date/Time
WST
Temp
°C
App
Temp
°C
Dew
Point
°C
Rel
Hum
%
Delta-T
°C
Wind Press
QNH
hPa
Press
MSL
hPa
Rain since
9am
mm
Dir  Spd
km/h
Gust
km/h
Spd
kts
Gust
kts
22/11:30pm 19.5 22.4 19.0 97 0.3 WSW 2 11 1 6 1015.2 1015.0 0.0
22/11:00pm 19.8 23.2 19.3 97 0.3 CALM 0 0 0 0 1015.3 1015.1 0.0
22/10:30pm 20.0 23.4 19.3 96 0.4 CALM 0 0 0 0 1015.5 1015.3 0.0
22/10:00pm 20.4 23.3 19.1 92 0.8 WSW 2 6 1 3 1015.8 1015.6 0.0
22/09:30pm 22.0 24.2 19.7 87 1.5 WSW 7 11 4 6 1015.9 1015.7 0.0
22/09:00pm 21.5 24.1 20.0 91 1.0 SW 6 11 3 6 1016.1 1015.9 0.0
22/08:30pm 21.8 24.4 20.1 90 1.1 SW 6 11 3 6 1015.9 1015.7 0.0
22/08:00pm 21.1 23.5 19.6 91 1.0 SW 6 7 3 4 1015.8 1015.6 0.0
22/07:30pm 21.0 23.5 19.1 89 1.2 WSW 4 7 2 4 1015.6 1015.4 0.0
22/07:00pm 21.0 23.1 17.2 79 2.3 WNW 2 4 1 2 1015.2 1015.0 0.0

Other Formats:

Comma delimited format used in spreadsheet applications
http://www.bom.gov.au/fwo/IDW60801/IDW60801.99206.axf

JavaScript Object Notation format (JSON) in row-major order
http://www.bom.gov.au/fwo/IDW60801/IDW60801.99206.json